Minerva Ellie — SZQI — position and weather

sailwx.info

Track history (hours):
 
Tides and Currents Weather Stations Pressure Air Temp Water Temp Dewpoint Dewpoint Depression Visibility Wind Speed Wind Dir Waves Ship Positions

Minerva Ellie

Last reported at 2018-Jan-22 23:47 UTC. Time now 2018-Jan-24 05:54 UTC.
Position N 37°06' E 001°11'.

Length 244 m; draft 12.4 m.

Type: Ship. MMSI: 240435000.

Date/timePositionNaut miles runAvg speedWind from/ knotsBaromVisibWave heightAir tempDewpointWater temp
2018-Jan-22 23:47N 37°06' E 001°11'1312.6
2018-Jan-22 22:44N 36°57' E 000°59'312.7
2018-Jan-22 22:30N 36°55' E 000°56'1212.8
2018-Jan-22 21:36N 36°48' E 000°45'112.9
2018-Jan-22 21:30N 36°47' E 000°44'612.9
2018-Jan-22 21:00N 36°43' E 000°38'713.6
2018-Jan-22 20:30N 36°38' E 000°32'713.4
2018-Jan-22 20:00N 36°34' E 000°25'713.2
2018-Jan-22 19:30N 36°30' E 000°19'713.3
2018-Jan-22 19:00N 36°26' E 000°13'713.2
2018-Jan-22 18:29N 36°21' E 000°07'713.4
2018-Jan-22 17:56N 36°14' E 000°02'613.5
2018-Jan-22 17:28N 36°09' W 000°02'913.4
2018-Jan-22 16:50N 36°01' W 000°07'4 0.1
2018-Jan-21 01:35N 36°05' W 000°06'0 3.7
2018-Jan-21 01:30N 36°06' W 000°06'2 3.7
2018-Jan-21 00:58N 36°08' W 000°05'2 3.6
2018-Jan-21 00:18N 36°10' W 000°04'1 2.6
2018-Jan-20 23:45N 36°11' W 000°04'1 2.9
2018-Jan-20 23:16N 36°10' W 000°04'1 2.8
2018-Jan-20 22:51N 36°09' W 000°05'1 2.8
2018-Jan-20 22:30N 36°08' W 000°05'1 2.6
2018-Jan-20 22:00N 36°07' W 000°06'2 2.5
2018-Jan-20 21:16N 36°05' W 000°07'1 2.4
2018-Jan-20 20:59N 36°04' W 000°07'1 2.4
2018-Jan-20 20:30N 36°03' W 000°08'1 2.3
2018-Jan-20 19:56N 36°02' W 000°09'1 2.2
2018-Jan-20 19:30N 36°02' W 000°09'1 2.0
2018-Jan-20 19:00N 36°01' W 000°10'1 1.5
2018-Jan-20 18:30N 36°01' W 000°09'2 4.1
2018-Jan-20 18:00N 35°59' W 000°07'2 4.5
2018-Jan-20 17:28N 35°57' W 000°05'3 1.4
2018-Jan-20 15:03N 35°60' W 000°08'0 2.0
2018-Jan-20 15:00N 35°60' W 000°09'1 2.0
2018-Jan-20 14:27N 36°00' W 000°10'89 2.2
2018-Jan-18 22:46N 37°28' E 000°05'  
Track history (hours):
 
Tides and Currents Weather Stations Pressure Air Temp Water Temp Dewpoint Dewpoint Depression Visibility Wind Speed Wind Dir Waves Ship Positions

Minerva Ellie

Last reported at 2018-Jan-22 23:47 UTC. Time now 2018-Jan-24 05:54 UTC.
Position N 37°06' E 001°11'.

Length 244 m; draft 12.4 m.

Type: Ship. MMSI: 240435000.

Date/timePositionNaut miles runAvg speedWind from/ knotsBaromVisibWave heightAir tempDewpointWater temp
2018-Jan-22 23:47N 37°06' E 001°11'1312.6
2018-Jan-22 22:44N 36°57' E 000°59'312.7
2018-Jan-22 22:30N 36°55' E 000°56'1212.8
2018-Jan-22 21:36N 36°48' E 000°45'112.9
2018-Jan-22 21:30N 36°47' E 000°44'612.9
2018-Jan-22 21:00N 36°43' E 000°38'713.6
2018-Jan-22 20:30N 36°38' E 000°32'713.4
2018-Jan-22 20:00N 36°34' E 000°25'713.2
2018-Jan-22 19:30N 36°30' E 000°19'713.3
2018-Jan-22 19:00N 36°26' E 000°13'713.2
2018-Jan-22 18:29N 36°21' E 000°07'713.4
2018-Jan-22 17:56N 36°14' E 000°02'613.5
2018-Jan-22 17:28N 36°09' W 000°02'913.4
2018-Jan-22 16:50N 36°01' W 000°07'4 0.1
2018-Jan-21 01:35N 36°05' W 000°06'0 3.7
2018-Jan-21 01:30N 36°06' W 000°06'2 3.7
2018-Jan-21 00:58N 36°08' W 000°05'2 3.6
2018-Jan-21 00:18N 36°10' W 000°04'1 2.6
2018-Jan-20 23:45N 36°11' W 000°04'1 2.9
2018-Jan-20 23:16N 36°10' W 000°04'1 2.8
2018-Jan-20 22:51N 36°09' W 000°05'1 2.8
2018-Jan-20 22:30N 36°08' W 000°05'1 2.6
2018-Jan-20 22:00N 36°07' W 000°06'2 2.5
2018-Jan-20 21:16N 36°05' W 000°07'1 2.4
2018-Jan-20 20:59N 36°04' W 000°07'1 2.4
2018-Jan-20 20:30N 36°03' W 000°08'1 2.3
2018-Jan-20 19:56N 36°02' W 000°09'1 2.2
2018-Jan-20 19:30N 36°02' W 000°09'1 2.0
2018-Jan-20 19:00N 36°01' W 000°10'1 1.5
2018-Jan-20 18:30N 36°01' W 000°09'2 4.1
2018-Jan-20 18:00N 35°59' W 000°07'2 4.5
2018-Jan-20 17:28N 35°57' W 000°05'3 1.4
2018-Jan-20 15:03N 35°60' W 000°08'0 2.0
2018-Jan-20 15:00N 35°60' W 000°09'1 2.0
2018-Jan-20 14:27N 36°00' W 000°10'89 2.2
2018-Jan-18 22:46N 37°28' E 000°05'  

Dump ship's entire track history